Terminal Aerodrome Forecast
Issued by NWS

Home | Current Version | Previous Version | Text Only | Print | Product List | Glossary On
Versions: 1 2 3 4 5 6 7 8 9 10 11 12 13 14 15 16 17 18 19 20 21 22 23 24 25 26
000
FTUS41 KPBZ 221407 AAD
TAFDUJ
TAF AMD
KDUJ 221407Z 2214/2312 12005KT 3SM BR SCT002 BKN100
      TEMPO 2214/2215 2SM BR BKN002
     FM221600 10005KT P6SM BKN100
     FM230100 09010KT P6SM OVC015
     FM230700 09012G22KT 4SM -SHRA OVC008=

USA.gov is the U.S. government's official web portal to all federal, state and local government web resources and services.